createdAt,value
2022-10-24T00:00:38.878Z,19.23
2022-10-24T00:03:47.081Z,21.52
2022-10-24T00:06:54.756Z,18.95
2022-10-24T00:10:04.927Z,21.23
2022-10-24T00:13:09.467Z,20.33
2022-10-24T00:16:14.238Z,20.73
2022-10-24T00:19:17.967Z,19.67
2022-10-24T00:22:22.234Z,20.85
2022-10-24T00:25:25.786Z,19.73
2022-10-24T00:28:30.136Z,19.70
2022-10-24T00:31:33.719Z,22.77
2022-10-24T00:34:37.858Z,29.77
2022-10-24T00:37:41.635Z,34.60
2022-10-24T00:40:45.579Z,36.42
2022-10-24T00:43:49.475Z,38.72
2022-10-24T00:46:57.890Z,31.02
2022-10-24T00:50:14.003Z,31.15
2022-10-24T00:53:17.954Z,41.92
2022-10-24T00:56:26.425Z,45.03
2022-10-24T00:59:31.001Z,50.15
2022-10-24T01:02:34.545Z,46.28
2022-10-24T01:05:49.981Z,44.90
2022-10-24T01:09:34.691Z,56.60
2022-10-24T01:13:03.745Z,57.33
2022-10-24T01:16:15.506Z,63.45
2022-10-24T01:19:56.423Z,60.80
2022-10-24T01:23:27.183Z,59.42
2022-10-24T01:26:56.916Z,59.13
2022-10-24T01:30:10.744Z,53.88
2022-10-24T01:33:30.542Z,56.42
2022-10-24T01:36:43.898Z,68.53
2022-10-24T01:39:52.208Z,77.05
2022-10-24T01:43:00.646Z,76.20
2022-10-24T01:46:09.489Z,67.07
2022-10-24T01:49:26.897Z,56.70
2022-10-24T01:52:35.848Z,46.63
2022-10-24T01:55:40.744Z,26.50
2022-10-24T01:58:45.990Z,32.08
2022-10-24T02:01:49.523Z,31.83
2022-10-24T02:05:02.623Z,38.72
2022-10-24T02:08:11.944Z,42.63
2022-10-24T02:11:15.712Z,37.00
2022-10-24T02:14:42.035Z,37.45
2022-10-24T02:17:46.170Z,40.93
2022-10-24T02:21:28.486Z,41.90
2022-10-24T02:24:46.351Z,40.72
2022-10-24T02:31:11.944Z,35.00
2022-10-24T02:34:18.557Z,37.33
2022-10-24T02:37:24.291Z,36.88
2022-10-24T02:40:28.456Z,34.80
2022-10-24T02:43:33.205Z,35.40
2022-10-24T02:46:37.537Z,35.22
2022-10-24T02:49:41.507Z,33.40
2022-10-24T02:52:45.917Z,32.42
2022-10-24T02:55:49.702Z,32.55
2022-10-24T02:58:53.944Z,32.38
2022-10-24T03:01:57.575Z,31.00
2022-10-24T03:05:04.147Z,26.80
2022-10-24T03:08:08.102Z,26.75
2022-10-24T03:11:11.701Z,26.48
2022-10-24T03:14:15.379Z,25.77
2022-10-24T03:17:18.731Z,24.50
2022-10-24T03:20:21.753Z,24.67
2022-10-24T03:23:29.431Z,23.75
2022-10-24T03:29:35.978Z,22.75
2022-10-24T03:32:39.682Z,22.15
2022-10-24T03:35:43.601Z,23.05
2022-10-24T03:38:47.236Z,24.40
2022-10-24T03:41:51.299Z,24.10
2022-10-24T03:44:54.677Z,24.50
2022-10-24T03:47:58.637Z,22.75
2022-10-24T03:51:01.898Z,24.73
2022-10-24T03:54:06.052Z,21.40
2022-10-24T03:57:10.568Z,21.33
2022-10-24T04:00:15.510Z,21.58
2022-10-24T04:03:18.579Z,21.52
2022-10-24T04:06:22.601Z,21.02
2022-10-24T04:09:25.460Z,20.25
2022-10-24T04:12:29.030Z,22.65
2022-10-24T04:15:31.951Z,22.95
2022-10-24T04:18:35.849Z,22.58
2022-10-24T04:21:40.007Z,22.35
2022-10-24T04:24:43.754Z,23.10
2022-10-24T04:27:47.986Z,24.52
2022-10-24T04:30:56.244Z,22.83
2022-10-24T04:33:59.738Z,23.17
2022-10-24T04:37:03.431Z,22.67
2022-10-24T04:40:07.943Z,22.15
2022-10-24T04:43:11.578Z,21.45
2022-10-24T04:46:14.745Z,22.23
2022-10-24T04:49:19.065Z,22.90
2022-10-24T04:52:22.766Z,22.13
2022-10-24T04:55:26.820Z,23.92
2022-10-24T04:58:30.625Z,24.13
2022-10-24T05:01:34.366Z,22.13
2022-10-24T05:04:37.964Z,23.73
2022-10-24T05:07:41.954Z,22.85
2022-10-24T05:10:46.688Z,23.55
2022-10-24T05:13:50.133Z,23.90
2022-10-24T05:16:54.222Z,24.60
2022-10-24T05:19:57.775Z,24.00
2022-10-24T05:23:02.226Z,23.10
2022-10-24T05:26:06.234Z,21.63
2022-10-24T05:29:10.073Z,19.25
2022-10-24T05:32:14.079Z,20.60
2022-10-24T05:35:17.874Z,21.80
2022-10-24T05:38:21.761Z,22.58
2022-10-24T05:41:25.570Z,21.75
2022-10-24T05:44:29.675Z,23.13
2022-10-24T05:47:33.858Z,21.77
2022-10-24T05:50:37.252Z,21.67
2022-10-24T05:53:41.310Z,22.10
2022-10-24T05:56:45.013Z,21.67
2022-10-24T05:59:49.167Z,21.88
2022-10-24T06:02:52.552Z,23.73
2022-10-24T06:05:56.561Z,24.55
2022-10-24T06:09:00.178Z,25.92
2022-10-24T06:12:03.901Z,22.77
2022-10-24T06:15:08.747Z,19.33
2022-10-24T06:18:12.881Z,16.50
2022-10-24T06:21:17.139Z,16.65
2022-10-24T06:24:20.393Z,14.52
2022-10-24T06:27:24.338Z,13.80
2022-10-24T06:30:28.466Z,11.57
2022-10-24T06:33:32.529Z,12.27
2022-10-24T06:36:37.771Z,12.70
2022-10-24T06:39:41.451Z,12.95
2022-10-24T06:42:45.247Z,12.63
2022-10-24T06:45:48.612Z,12.52
2022-10-24T06:48:55.906Z,11.98
2022-10-24T06:52:00.151Z,11.85
2022-10-24T06:55:04.623Z,12.05
2022-10-24T06:58:08.562Z,13.50
2022-10-24T07:01:18.392Z,11.27
2022-10-24T07:04:22.595Z,11.43
2022-10-24T07:07:25.949Z,12.50
2022-10-24T07:10:29.965Z,13.65
2022-10-24T07:13:33.447Z,14.63
2022-10-24T07:16:38.131Z,13.85
2022-10-24T07:19:42.437Z,14.15
2022-10-24T07:22:46.635Z,13.45
2022-10-24T07:25:50.444Z,12.35
2022-10-24T07:28:56.988Z,12.63
2022-10-24T07:32:00.150Z,11.50
2022-10-24T07:35:04.165Z,11.50
2022-10-24T07:38:07.578Z,10.70
2022-10-24T07:41:11.686Z,13.05
2022-10-24T07:44:15.334Z,11.57
2022-10-24T07:47:19.371Z,11.30
2022-10-24T07:50:22.568Z,10.27
2022-10-24T07:53:28.252Z,9.38
2022-10-24T07:56:31.991Z,9.75
2022-10-24T07:59:42.109Z,9.88
2022-10-24T08:02:46.470Z,10.55
2022-10-24T08:05:51.441Z,10.60
2022-10-24T08:08:54.923Z,10.43
2022-10-24T08:11:59.245Z,10.27
2022-10-24T08:15:05.341Z,11.98
2022-10-24T08:18:09.529Z,13.80
2022-10-24T08:21:15.958Z,19.23
2022-10-24T08:24:20.233Z,17.00
2022-10-24T08:27:24.557Z,14.88
2022-10-24T08:30:27.600Z,14.32
2022-10-24T08:33:31.893Z,14.02
2022-10-24T08:36:38.364Z,12.30
2022-10-24T08:39:41.442Z,10.73
2022-10-24T08:42:46.204Z,12.15
2022-10-24T08:46:30.033Z,13.88
2022-10-24T08:49:58.160Z,13.77
2022-10-24T08:53:07.560Z,13.30
2022-10-24T08:56:12.833Z,17.45
2022-10-24T08:59:15.885Z,13.88
2022-10-24T09:02:24.875Z,14.80
2022-10-24T09:05:43.688Z,15.38
2022-10-24T09:09:04.967Z,18.15
2022-10-24T09:12:20.724Z,15.80
2022-10-24T09:15:30.168Z,15.00
2022-10-24T09:18:38.696Z,16.50
2022-10-24T09:21:43.960Z,14.85
2022-10-24T09:24:59.535Z,16.17
2022-10-24T09:28:06.348Z,13.68
2022-10-24T09:31:19.412Z,13.13
2022-10-24T09:34:22.908Z,16.73
2022-10-24T09:37:46.953Z,17.48
2022-10-24T09:40:53.333Z,19.73
2022-10-24T09:44:01.952Z,18.98
2022-10-24T09:47:09.838Z,21.45
2022-10-24T09:50:24.211Z,21.08
2022-10-24T09:53:37.653Z,22.83
2022-10-24T09:56:43.644Z,21.30
2022-10-24T09:59:58.517Z,19.90
2022-10-24T10:03:28.335Z,19.85
2022-10-24T10:06:34.174Z,18.60
2022-10-24T10:09:43.264Z,16.60
2022-10-24T10:12:57.664Z,19.92
2022-10-24T10:16:03.559Z,29.75
2022-10-24T10:19:19.091Z,30.33
2022-10-24T10:22:26.665Z,27.63
2022-10-24T10:25:32.915Z,26.23
2022-10-24T10:28:43.249Z,18.08
2022-10-24T10:31:50.274Z,18.67
2022-10-24T10:35:20.007Z,17.48
2022-10-24T10:38:41.306Z,21.10
2022-10-24T10:42:03.640Z,21.10
2022-10-24T10:45:14.580Z,15.85
2022-10-24T10:48:57.198Z,16.05
2022-10-24T10:52:19.118Z,17.50
2022-10-24T10:55:40.553Z,19.55
2022-10-24T10:59:16.881Z,21.15
2022-10-24T11:02:53.082Z,16.88
2022-10-24T11:06:15.380Z,16.63
2022-10-24T11:09:50.353Z,15.77
2022-10-24T11:12:55.226Z,15.05
2022-10-24T11:16:05.439Z,15.65
2022-10-24T11:19:48.137Z,18.30
2022-10-24T11:22:57.991Z,20.23
2022-10-24T11:26:27.635Z,21.60
2022-10-24T11:29:40.552Z,24.98
2022-10-24T11:33:00.265Z,26.52
2022-10-24T11:37:11.220Z,26.38
2022-10-24T11:40:22.750Z,22.48
2022-10-24T11:43:35.937Z,20.63
2022-10-24T11:46:45.809Z,20.23
2022-10-24T11:49:56.997Z,17.92
2022-10-24T11:53:06.431Z,17.02
2022-10-24T11:56:37.517Z,19.80
2022-10-24T11:59:43.272Z,19.85
2022-10-24T12:02:59.280Z,22.33
2022-10-24T12:06:31.398Z,22.95
2022-10-24T12:09:35.043Z,21.27
2022-10-24T12:12:51.221Z,25.20
2022-10-24T12:16:27.080Z,22.05
2022-10-24T12:19:31.567Z,19.75
2022-10-24T12:22:40.515Z,14.38
2022-10-24T12:25:47.357Z,19.02
2022-10-24T12:32:26.159Z,17.48
2022-10-24T12:35:35.223Z,21.17
2022-10-24T12:38:38.154Z,17.75
2022-10-24T12:41:42.650Z,18.30
2022-10-24T12:44:48.088Z,14.13
2022-10-24T12:51:06.124Z,16.42
2022-10-24T12:54:12.737Z,7.63
2022-10-24T12:57:24.412Z,15.25
2022-10-24T13:00:34.123Z,15.23
2022-10-24T13:03:48.700Z,15.43
2022-10-24T13:07:16.449Z,14.50
2022-10-24T13:10:39.042Z,12.50
2022-10-24T13:13:45.267Z,13.32
2022-10-24T13:17:19.989Z,12.87
2022-10-24T13:20:25.608Z,12.02
2022-10-24T13:23:30.290Z,10.15
2022-10-24T13:26:58.661Z,13.93
2022-10-24T13:30:06.789Z,12.13
2022-10-24T13:33:32.131Z,13.02
2022-10-24T13:36:35.731Z,10.52
2022-10-24T13:39:46.247Z,10.30
2022-10-24T13:42:56.573Z,8.50
2022-10-24T13:46:12.043Z,9.63
2022-10-24T13:49:48.816Z,10.90
2022-10-24T13:52:58.572Z,8.32
2022-10-24T13:56:10.857Z,8.15
2022-10-24T13:59:40.367Z,9.45
2022-10-24T14:02:44.313Z,8.40
2022-10-24T14:05:52.102Z,8.63
2022-10-24T14:12:22.254Z,7.95
2022-10-24T14:15:32.199Z,10.40
2022-10-24T14:18:39.275Z,7.43
2022-10-24T14:21:45.595Z,17.00
2022-10-24T14:24:50.301Z,17.30
2022-10-24T14:27:59.921Z,20.15
2022-10-24T14:31:07.608Z,24.75
2022-10-24T14:34:21.400Z,20.73
2022-10-24T14:37:44.641Z,22.05
2022-10-24T14:41:01.272Z,13.30
2022-10-24T14:44:16.450Z,26.48
2022-10-24T14:47:19.827Z,25.27
2022-10-24T14:50:38.032Z,17.42
2022-10-24T14:53:43.892Z,9.93
2022-10-24T14:56:48.640Z,11.55
2022-10-24T14:59:54.750Z,9.82
2022-10-24T15:03:02.681Z,8.48
2022-10-24T15:06:13.359Z,6.00
2022-10-24T15:09:18.741Z,10.50
2022-10-24T15:12:47.049Z,8.80
2022-10-24T15:15:59.950Z,8.05
2022-10-24T15:19:06.609Z,8.65
2022-10-24T15:22:34.895Z,11.75
2022-10-24T15:25:42.070Z,9.82
2022-10-24T15:28:48.707Z,6.65
2022-10-24T15:31:53.207Z,7.72
2022-10-24T15:34:57.016Z,6.15
2022-10-24T15:38:04.378Z,7.60
2022-10-24T15:41:08.717Z,8.88
2022-10-24T15:44:21.166Z,7.70
2022-10-24T15:47:25.609Z,8.55
2022-10-24T15:50:29.432Z,5.43
2022-10-24T15:53:33.283Z,6.22
2022-10-24T15:56:37.070Z,5.85
2022-10-24T15:59:41.002Z,5.65
2022-10-24T16:02:49.929Z,6.05
2022-10-24T16:05:57.036Z,5.10
2022-10-24T16:09:00.794Z,5.75
2022-10-24T16:12:04.486Z,5.10
2022-10-24T16:15:18.512Z,4.38
2022-10-24T16:18:25.271Z,3.75
2022-10-24T16:21:29.061Z,3.30
2022-10-24T16:24:33.064Z,3.40
2022-10-24T16:27:36.690Z,3.17
2022-10-24T16:30:42.221Z,4.82
2022-10-24T16:33:46.931Z,4.10
2022-10-24T16:36:55.118Z,4.53
2022-10-24T16:40:00.208Z,2.90
2022-10-24T16:43:03.925Z,4.00
2022-10-24T16:46:07.848Z,3.90
2022-10-24T16:49:11.415Z,4.70
2022-10-24T16:52:15.429Z,7.68
2022-10-24T16:55:19.320Z,4.22
2022-10-24T16:58:24.073Z,5.90
2022-10-24T17:01:28.309Z,6.60
2022-10-24T17:04:33.824Z,6.85
2022-10-24T17:07:37.266Z,6.30
2022-10-24T17:10:41.420Z,3.35
2022-10-24T17:13:45.185Z,3.28
2022-10-24T17:16:49.232Z,3.35
2022-10-24T17:19:52.464Z,1.02
2022-10-24T17:22:57.334Z,1.83
2022-10-24T17:26:00.854Z,3.10
2022-10-24T17:29:05.702Z,4.10
2022-10-24T17:32:11.506Z,2.35
2022-10-24T17:35:18.887Z,2.20
2022-10-24T17:38:34.408Z,1.90
2022-10-24T17:41:42.317Z,3.55
2022-10-24T17:44:46.276Z,4.00
2022-10-24T17:47:50.910Z,7.40
2022-10-24T17:50:57.187Z,6.05
2022-10-24T17:54:01.159Z,2.45
2022-10-24T17:57:07.151Z,5.40
2022-10-24T18:00:12.414Z,1.80
2022-10-24T18:03:16.125Z,2.17
2022-10-24T18:06:20.217Z,1.38
2022-10-24T18:09:24.116Z,1.15
2022-10-24T18:12:27.869Z,0.85
2022-10-24T18:15:31.556Z,1.27
2022-10-24T18:18:35.890Z,0.70
2022-10-24T18:21:39.573Z,0.80
2022-10-24T18:24:43.222Z,0.60
2022-10-24T18:27:46.973Z,0.80
2022-10-24T18:30:50.988Z,0.77
2022-10-24T18:33:54.244Z,1.05
2022-10-24T18:36:57.650Z,0.60
2022-10-24T18:40:01.696Z,0.50
2022-10-24T18:43:08.322Z,0.70
2022-10-24T18:46:13.348Z,0.50
2022-10-24T18:49:17.786Z,0.40
2022-10-24T18:52:52.134Z,0.40
2022-10-24T18:55:56.323Z,0.70
2022-10-24T18:58:59.948Z,0.60
2022-10-24T19:02:25.727Z,0.40
2022-10-24T19:05:48.009Z,1.13
2022-10-24T19:08:54.738Z,1.00
2022-10-24T19:11:58.181Z,0.90
2022-10-24T19:15:02.558Z,0.85
2022-10-24T19:18:09.645Z,0.73
2022-10-24T19:21:13.741Z,0.57
2022-10-24T19:24:17.410Z,1.20
2022-10-24T19:27:21.322Z,1.00
2022-10-24T19:30:25.024Z,1.20
2022-10-24T19:33:31.172Z,0.90
2022-10-24T19:36:34.587Z,1.40
2022-10-24T19:39:38.769Z,0.70
2022-10-24T19:42:42.688Z,0.68
2022-10-24T19:45:50.848Z,0.80
2022-10-24T19:49:04.438Z,0.80
2022-10-24T19:52:08.449Z,0.70
2022-10-24T19:55:12.228Z,0.60
2022-10-24T19:58:21.283Z,0.40
2022-10-24T20:01:30.202Z,0.55
2022-10-24T20:04:40.114Z,0.90
2022-10-24T20:07:44.020Z,0.80
2022-10-24T20:10:55.058Z,0.73
2022-10-24T20:13:58.802Z,0.80
2022-10-24T20:17:03.070Z,0.60
2022-10-24T20:20:07.393Z,0.45
2022-10-24T20:23:11.214Z,0.68
2022-10-24T20:26:22.249Z,0.50
2022-10-24T20:29:26.483Z,0.77
2022-10-24T20:32:30.039Z,0.85
2022-10-24T20:35:34.010Z,0.80
2022-10-24T20:38:37.600Z,0.80
2022-10-24T20:41:41.448Z,1.15
2022-10-24T20:44:45.185Z,1.20
2022-10-24T20:47:49.370Z,2.05
2022-10-24T20:50:52.784Z,0.90
2022-10-24T20:53:56.939Z,0.98
2022-10-24T20:57:00.638Z,1.35
2022-10-24T21:00:05.758Z,0.60
2022-10-24T21:03:12.523Z,0.90
2022-10-24T21:06:25.728Z,0.70
2022-10-24T21:09:29.488Z,0.60
2022-10-24T21:12:32.974Z,0.90
2022-10-24T21:15:36.591Z,1.20
2022-10-24T21:18:40.034Z,0.90
2022-10-24T21:21:43.829Z,0.60
2022-10-24T21:24:47.048Z,0.55
2022-10-24T21:27:50.780Z,0.57
2022-10-24T21:30:54.091Z,0.65
2022-10-24T21:33:58.186Z,0.60
2022-10-24T21:37:01.889Z,0.80
2022-10-24T21:40:06.207Z,0.63
2022-10-24T21:43:09.965Z,0.88
2022-10-24T21:46:15.922Z,0.90
2022-10-24T21:49:20.041Z,1.55
2022-10-24T21:52:23.715Z,0.55
2022-10-24T21:55:27.678Z,0.90
2022-10-24T21:58:30.925Z,0.63
2022-10-24T22:01:37.538Z,0.80
2022-10-24T22:04:41.480Z,0.60
2022-10-24T22:07:47.567Z,0.32
2022-10-24T22:11:05.534Z,0.60
2022-10-24T22:14:09.178Z,0.90
2022-10-24T22:17:12.945Z,0.65
2022-10-24T22:20:16.651Z,0.85
2022-10-24T22:23:19.897Z,0.73
2022-10-24T22:26:27.681Z,0.63
2022-10-24T22:32:35.804Z,0.73
2022-10-24T22:35:39.467Z,0.93
2022-10-24T22:38:42.777Z,0.88
2022-10-24T22:41:47.434Z,0.73
2022-10-24T22:44:51.707Z,0.80
2022-10-24T22:51:21.278Z,0.80
2022-10-24T23:00:39.819Z,0.90
2022-10-24T23:03:53.508Z,0.55
2022-10-24T23:10:27.883Z,1.10
2022-10-24T23:13:33.226Z,1.10
2022-10-24T23:16:51.890Z,1.20
2022-10-24T23:19:58.350Z,1.83
2022-10-24T23:23:17.069Z,1.20
2022-10-24T23:26:49.720Z,0.90
2022-10-24T23:29:54.183Z,1.13
2022-10-24T23:32:57.513Z,0.82
2022-10-24T23:36:01.660Z,1.83
2022-10-24T23:39:05.856Z,1.33
2022-10-24T23:42:10.364Z,1.20
2022-10-24T23:45:20.959Z,1.08
2022-10-24T23:48:54.089Z,0.82
2022-10-24T23:52:26.094Z,1.17
2022-10-24T23:55:30.319Z,0.95
2022-10-24T23:58:36.970Z,1.08
